sensor_id;sensor_type;location;lat;lon;timestamp;temperature;humidity
44843;DHT22;31884;52.538;13.820;2023-05-29T00:01:26;11.50;71.30
44843;DHT22;31884;52.538;13.820;2023-05-29T00:03:53;11.40;71.40
44843;DHT22;31884;52.538;13.820;2023-05-29T00:06:21;11.30;71.50
44843;DHT22;31884;52.538;13.820;2023-05-29T00:08:47;11.30;71.70
44843;DHT22;31884;52.538;13.820;2023-05-29T00:11:13;11.20;73.40
44843;DHT22;31884;52.538;13.820;2023-05-29T00:13:38;11.10;74.10
44843;DHT22;31884;52.538;13.820;2023-05-29T00:16:04;11.00;75.10
44843;DHT22;31884;52.538;13.820;2023-05-29T00:18:30;11.00;75.30
44843;DHT22;31884;52.538;13.820;2023-05-29T00:20:56;10.90;76.90
44843;DHT22;31884;52.538;13.820;2023-05-29T00:23:21;10.90;77.10
44843;DHT22;31884;52.538;13.820;2023-05-29T00:25:47;10.80;77.50
44843;DHT22;31884;52.538;13.820;2023-05-29T00:28:13;10.70;78.60
44843;DHT22;31884;52.538;13.820;2023-05-29T00:30:39;10.70;78.90
44843;DHT22;31884;52.538;13.820;2023-05-29T00:33:06;10.60;79.30
44843;DHT22;31884;52.538;13.820;2023-05-29T00:35:31;10.60;79.10
44843;DHT22;31884;52.538;13.820;2023-05-29T00:37:57;10.50;79.40
44843;DHT22;31884;52.538;13.820;2023-05-29T00:40:25;10.40;80.30
44843;DHT22;31884;52.538;13.820;2023-05-29T00:42:50;10.40;80.60
44843;DHT22;31884;52.538;13.820;2023-05-29T00:45:16;10.30;83.60
44843;DHT22;31884;52.538;13.820;2023-05-29T00:47:42;10.30;84.10
44843;DHT22;31884;52.538;13.820;2023-05-29T00:50:11;10.20;85.30
44843;DHT22;31884;52.538;13.820;2023-05-29T00:52:43;10.20;88.50
44843;DHT22;31884;52.538;13.820;2023-05-29T00:55:09;10.10;87.10
44843;DHT22;31884;52.538;13.820;2023-05-29T00:57:36;10.10;87.80
44843;DHT22;31884;52.538;13.820;2023-05-29T01:00:05;10.00;86.80
44843;DHT22;31884;52.538;13.820;2023-05-29T01:02:36;10.00;87.80
44843;DHT22;31884;52.538;13.820;2023-05-29T01:05:03;10.00;89.70
44843;DHT22;31884;52.538;13.820;2023-05-29T01:07:29;9.90;89.30
44843;DHT22;31884;52.538;13.820;2023-05-29T01:09:54;9.90;89.40
44843;DHT22;31884;52.538;13.820;2023-05-29T01:12:47;9.80;90.10
44843;DHT22;31884;52.538;13.820;2023-05-29T01:15:21;9.80;90.20
44843;DHT22;31884;52.538;13.820;2023-05-29T01:18:07;9.70;91.60
44843;DHT22;31884;52.538;13.820;2023-05-29T01:24:10;9.70;91.40
44843;DHT22;31884;52.538;13.820;2023-05-29T01:29:27;9.60;91.80
44843;DHT22;31884;52.538;13.820;2023-05-29T01:31:54;9.50;92.60
44843;DHT22;31884;52.538;13.820;2023-05-29T01:34:21;9.50;92.40
44843;DHT22;31884;52.538;13.820;2023-05-29T01:36:46;9.50;92.30
44843;DHT22;31884;52.538;13.820;2023-05-29T01:39:12;9.50;93.30
44843;DHT22;31884;52.538;13.820;2023-05-29T01:41:40;9.50;93.30
44843;DHT22;31884;52.538;13.820;2023-05-29T01:44:07;9.50;93.00
44843;DHT22;31884;52.538;13.820;2023-05-29T01:46:37;9.50;93.10
44843;DHT22;31884;52.538;13.820;2023-05-29T01:49:05;9.40;93.40
44843;DHT22;31884;52.538;13.820;2023-05-29T01:51:32;9.40;93.90
44843;DHT22;31884;52.538;13.820;2023-05-29T01:53:58;9.40;94.00
44843;DHT22;31884;52.538;13.820;2023-05-29T01:56:26;9.30;93.90
44843;DHT22;31884;52.538;13.820;2023-05-29T01:58:56;9.30;94.60
44843;DHT22;31884;52.538;13.820;2023-05-29T02:01:23;9.30;97.30
44843;DHT22;31884;52.538;13.820;2023-05-29T02:03:48;9.20;96.20
44843;DHT22;31884;52.538;13.820;2023-05-29T02:06:14;9.20;95.40
44843;DHT22;31884;52.538;13.820;2023-05-29T02:08:41;9.20;96.50
44843;DHT22;31884;52.538;13.820;2023-05-29T02:11:06;9.20;95.50
44843;DHT22;31884;52.538;13.820;2023-05-29T02:13:32;9.20;96.20
44843;DHT22;31884;52.538;13.820;2023-05-29T02:15:57;9.10;95.50
44843;DHT22;31884;52.538;13.820;2023-05-29T02:18:23;9.00;95.40
44843;DHT22;31884;52.538;13.820;2023-05-29T02:20:49;9.00;96.20
44843;DHT22;31884;52.538;13.820;2023-05-29T02:23:16;9.00;95.90
44843;DHT22;31884;52.538;13.820;2023-05-29T02:25:42;9.00;96.00
44843;DHT22;31884;52.538;13.820;2023-05-29T02:28:08;8.90;97.00
44843;DHT22;31884;52.538;13.820;2023-05-29T02:30:35;8.90;96.80
44843;DHT22;31884;52.538;13.820;2023-05-29T02:33:02;8.90;96.50
44843;DHT22;31884;52.538;13.820;2023-05-29T02:35:27;8.90;96.30
44843;DHT22;31884;52.538;13.820;2023-05-29T02:37:53;8.90;96.20
44843;DHT22;31884;52.538;13.820;2023-05-29T02:40:20;8.80;96.30
44843;DHT22;31884;52.538;13.820;2023-05-29T02:42:46;8.80;97.50
44843;DHT22;31884;52.538;13.820;2023-05-29T02:45:11;8.70;98.30
44843;DHT22;31884;52.538;13.820;2023-05-29T02:47:37;8.70;98.60
44843;DHT22;31884;52.538;13.820;2023-05-29T02:50:03;8.70;97.90
44843;DHT22;31884;52.538;13.820;2023-05-29T02:52:29;8.70;97.90
44843;DHT22;31884;52.538;13.820;2023-05-29T02:54:58;8.70;97.60
44843;DHT22;31884;52.538;13.820;2023-05-29T02:57:25;8.70;97.70
44843;DHT22;31884;52.538;13.820;2023-05-29T02:59:51;8.60;97.60
44843;DHT22;31884;52.538;13.820;2023-05-29T03:02:17;8.60;97.90
44843;DHT22;31884;52.538;13.820;2023-05-29T03:04:44;8.60;98.30
44843;DHT22;31884;52.538;13.820;2023-05-29T03:07:10;8.70;98.40
44843;DHT22;31884;52.538;13.820;2023-05-29T03:09:36;8.70;98.20
44843;DHT22;31884;52.538;13.820;2023-05-29T03:12:02;8.60;98.60
44843;DHT22;31884;52.538;13.820;2023-05-29T03:14:28;8.70;98.50
44843;DHT22;31884;52.538;13.820;2023-05-29T03:16:54;8.70;98.50
44843;DHT22;31884;52.538;13.820;2023-05-29T03:19:22;8.70;98.80
44843;DHT22;31884;52.538;13.820;2023-05-29T03:21:47;8.70;99.60
44843;DHT22;31884;52.538;13.820;2023-05-29T03:24:13;8.70;99.90
44843;DHT22;31884;52.538;13.820;2023-05-29T03:26:42;8.70;99.40
44843;DHT22;31884;52.538;13.820;2023-05-29T03:29:08;8.80;99.70
44843;DHT22;31884;52.538;13.820;2023-05-29T03:31:33;8.80;99.40
44843;DHT22;31884;52.538;13.820;2023-05-29T03:33:59;8.80;99.90
44843;DHT22;31884;52.538;13.820;2023-05-29T03:36:25;8.90;99.80
44843;DHT22;31884;52.538;13.820;2023-05-29T03:38:50;9.00;99.90
44843;DHT22;31884;52.538;13.820;2023-05-29T03:41:16;9.00;99.90
44843;DHT22;31884;52.538;13.820;2023-05-29T03:43:42;9.20;99.30
44843;DHT22;31884;52.538;13.820;2023-05-29T03:46:07;9.60;99.20
44843;DHT22;31884;52.538;13.820;2023-05-29T03:48:33;10.20;99.20
44843;DHT22;31884;52.538;13.820;2023-05-29T03:50:59;10.80;97.50
44843;DHT22;31884;52.538;13.820;2023-05-29T03:53:25;11.40;95.80
44843;DHT22;31884;52.538;13.820;2023-05-29T03:55:50;11.90;93.80
44843;DHT22;31884;52.538;13.820;2023-05-29T03:58:16;12.50;92.20
44843;DHT22;31884;52.538;13.820;2023-05-29T04:00:42;13.10;90.60
44843;DHT22;31884;52.538;13.820;2023-05-29T04:03:08;13.70;87.50
44843;DHT22;31884;52.538;13.820;2023-05-29T04:05:34;14.20;84.30
44843;DHT22;31884;52.538;13.820;2023-05-29T04:07:59;14.80;81.60
44843;DHT22;31884;52.538;13.820;2023-05-29T04:10:26;15.30;78.70
44843;DHT22;31884;52.538;13.820;2023-05-29T04:12:52;15.70;75.90
44843;DHT22;31884;52.538;13.820;2023-05-29T04:15:17;16.20;73.60
44843;DHT22;31884;52.538;13.820;2023-05-29T04:17:43;16.70;71.00
44843;DHT22;31884;52.538;13.820;2023-05-29T04:20:09;17.10;70.10
44843;DHT22;31884;52.538;13.820;2023-05-29T04:22:38;17.70;68.10
44843;DHT22;31884;52.538;13.820;2023-05-29T04:25:04;18.20;65.30
44843;DHT22;31884;52.538;13.820;2023-05-29T04:27:32;18.70;64.10
44843;DHT22;31884;52.538;13.820;2023-05-29T04:29:58;19.10;61.20
44843;DHT22;31884;52.538;13.820;2023-05-29T04:32:23;19.50;58.60
44843;DHT22;31884;52.538;13.820;2023-05-29T04:34:49;19.90;56.00
44843;DHT22;31884;52.538;13.820;2023-05-29T04:37:16;20.30;55.30
44843;DHT22;31884;52.538;13.820;2023-05-29T04:39:43;20.70;51.20
44843;DHT22;31884;52.538;13.820;2023-05-29T04:42:08;20.80;50.40
44843;DHT22;31884;52.538;13.820;2023-05-29T04:44:34;21.20;48.60
44843;DHT22;31884;52.538;13.820;2023-05-29T04:46:59;21.60;46.10
44843;DHT22;31884;52.538;13.820;2023-05-29T04:49:28;22.00;44.10
44843;DHT22;31884;52.538;13.820;2023-05-29T04:51:54;22.40;41.80
44843;DHT22;31884;52.538;13.820;2023-05-29T04:54:22;22.50;39.00
44843;DHT22;31884;52.538;13.820;2023-05-29T04:56:47;22.30;35.70
44843;DHT22;31884;52.538;13.820;2023-05-29T04:59:13;22.40;36.30
44843;DHT22;31884;52.538;13.820;2023-05-29T05:01:38;22.70;33.20
44843;DHT22;31884;52.538;13.820;2023-05-29T05:04:05;22.40;32.20
44843;DHT22;31884;52.538;13.820;2023-05-29T05:06:31;22.10;32.50
44843;DHT22;31884;52.538;13.820;2023-05-29T05:08:57;22.10;30.10
44843;DHT22;31884;52.538;13.820;2023-05-29T05:11:23;22.50;31.20
44843;DHT22;31884;52.538;13.820;2023-05-29T05:13:50;23.00;29.30
44843;DHT22;31884;52.538;13.820;2023-05-29T05:16:17;23.80;28.10
44843;DHT22;31884;52.538;13.820;2023-05-29T05:18:44;24.30;26.30
44843;DHT22;31884;52.538;13.820;2023-05-29T05:21:09;24.60;24.70
44843;DHT22;31884;52.538;13.820;2023-05-29T05:23:36;24.40;24.00
44843;DHT22;31884;52.538;13.820;2023-05-29T05:26:01;24.60;22.80
44843;DHT22;31884;52.538;13.820;2023-05-29T05:28:27;24.60;22.60
44843;DHT22;31884;52.538;13.820;2023-05-29T05:30:53;25.20;21.90
44843;DHT22;31884;52.538;13.820;2023-05-29T05:33:19;26.00;19.00
44843;DHT22;31884;52.538;13.820;2023-05-29T05:35:45;26.40;17.20
44843;DHT22;31884;52.538;13.820;2023-05-29T05:38:10;26.70;17.30
44843;DHT22;31884;52.538;13.820;2023-05-29T05:40:37;27.20;15.60
44843;DHT22;31884;52.538;13.820;2023-05-29T05:43:03;27.40;13.30
44843;DHT22;31884;52.538;13.820;2023-05-29T05:45:29;27.80;13.90
44843;DHT22;31884;52.538;13.820;2023-05-29T05:47:56;27.90;12.30
44843;DHT22;31884;52.538;13.820;2023-05-29T05:50:21;27.50;7.50
44843;DHT22;31884;52.538;13.820;2023-05-29T05:52:48;26.80;10.90
44843;DHT22;31884;52.538;13.820;2023-05-29T05:55:14;26.90;10.20
44843;DHT22;31884;52.538;13.820;2023-05-29T05:57:39;27.40;10.40
44843;DHT22;31884;52.538;13.820;2023-05-29T06:00:05;28.10;9.80
44843;DHT22;31884;52.538;13.820;2023-05-29T06:02:38;28.70;9.40
44843;DHT22;31884;52.538;13.820;2023-05-29T06:05:09;28.60;8.60
44843;DHT22;31884;52.538;13.820;2023-05-29T06:07:35;28.60;8.10
44843;DHT22;31884;52.538;13.820;2023-05-29T06:10:01;28.30;7.10
44843;DHT22;31884;52.538;13.820;2023-05-29T06:12:27;28.70;6.50
44843;DHT22;31884;52.538;13.820;2023-05-29T06:14:53;29.00;5.90
44843;DHT22;31884;52.538;13.820;2023-05-29T06:17:19;29.20;2.90
44843;DHT22;31884;52.538;13.820;2023-05-29T06:19:44;28.90;4.50
44843;DHT22;31884;52.538;13.820;2023-05-29T06:22:10;28.80;3.40
44843;DHT22;31884;52.538;13.820;2023-05-29T06:24:35;28.40;3.20
44843;DHT22;31884;52.538;13.820;2023-05-29T06:27:01;28.60;3.60
44843;DHT22;31884;52.538;13.820;2023-05-29T06:29:26;29.00;3.70
44843;DHT22;31884;52.538;13.820;2023-05-29T06:31:52;29.40;2.90
44843;DHT22;31884;52.538;13.820;2023-05-29T06:34:17;30.40;2.80
44843;DHT22;31884;52.538;13.820;2023-05-29T06:36:43;30.30;1.20
44843;DHT22;31884;52.538;13.820;2023-05-29T06:39:09;30.00;1.80
44843;DHT22;31884;52.538;13.820;2023-05-29T06:41:35;29.20;2.00
44843;DHT22;31884;52.538;13.820;2023-05-29T06:44:01;29.10;2.40
44843;DHT22;31884;52.538;13.820;2023-05-29T06:46:27;29.80;1.70
44843;DHT22;31884;52.538;13.820;2023-05-29T06:48:54;30.50;1.00
44843;DHT22;31884;52.538;13.820;2023-05-29T06:51:20;31.10;1.00
44843;DHT22;31884;52.538;13.820;2023-05-29T06:53:45;31.80;1.00
44843;DHT22;31884;52.538;13.820;2023-05-29T06:56:11;32.50;1.00
44843;DHT22;31884;52.538;13.820;2023-05-29T06:58:36;32.40;1.00
44843;DHT22;31884;52.538;13.820;2023-05-29T07:01:02;31.90;1.00
44843;DHT22;31884;52.538;13.820;2023-05-29T07:03:28;31.70;1.00
44843;DHT22;31884;52.538;13.820;2023-05-29T07:05:54;31.60;1.00
44843;DHT22;31884;52.538;13.820;2023-05-29T07:08:20;31.80;1.00
44843;DHT22;31884;52.538;13.820;2023-05-29T07:10:46;32.20;1.00
44843;DHT22;31884;52.538;13.820;2023-05-29T07:13:15;32.30;1.00
44843;DHT22;31884;52.538;13.820;2023-05-29T07:15:42;33.00;1.00
44843;DHT22;31884;52.538;13.820;2023-05-29T07:18:08;31.70;1.00
44843;DHT22;31884;52.538;13.820;2023-05-29T07:20:33;30.50;1.00
44843;DHT22;31884;52.538;13.820;2023-05-29T07:22:59;30.90;1.00
44843;DHT22;31884;52.538;13.820;2023-05-29T07:25:25;31.50;1.00
44843;DHT22;31884;52.538;13.820;2023-05-29T07:27:51;32.90;1.00
44843;DHT22;31884;52.538;13.820;2023-05-29T07:30:17;33.60;1.00
44843;DHT22;31884;52.538;13.820;2023-05-29T07:32:44;33.50;1.00
44843;DHT22;31884;52.538;13.820;2023-05-29T07:35:09;33.70;1.00
44843;DHT22;31884;52.538;13.820;2023-05-29T07:37:35;33.00;1.00
44843;DHT22;31884;52.538;13.820;2023-05-29T07:40:02;31.40;1.00
44843;DHT22;31884;52.538;13.820;2023-05-29T07:42:34;31.40;1.00
44843;DHT22;31884;52.538;13.820;2023-05-29T07:45:00;31.10;1.00
44843;DHT22;31884;52.538;13.820;2023-05-29T07:47:25;30.90;1.00
44843;DHT22;31884;52.538;13.820;2023-05-29T07:49:51;30.00;1.00
44843;DHT22;31884;52.538;13.820;2023-05-29T07:52:17;28.80;1.00
44843;DHT22;31884;52.538;13.820;2023-05-29T07:54:43;28.00;1.00
44843;DHT22;31884;52.538;13.820;2023-05-29T07:57:09;28.30;1.00
44843;DHT22;31884;52.538;13.820;2023-05-29T07:59:40;29.90;1.00
44843;DHT22;31884;52.538;13.820;2023-05-29T08:02:08;30.60;1.00
44843;DHT22;31884;52.538;13.820;2023-05-29T08:04:33;31.30;1.00
44843;DHT22;31884;52.538;13.820;2023-05-29T08:07:00;31.10;1.00
44843;DHT22;31884;52.538;13.820;2023-05-29T08:09:26;30.40;1.00
44843;DHT22;31884;52.538;13.820;2023-05-29T08:11:53;30.70;1.00
44843;DHT22;31884;52.538;13.820;2023-05-29T08:14:18;30.10;1.00
44843;DHT22;31884;52.538;13.820;2023-05-29T08:16:44;28.50;1.00
44843;DHT22;31884;52.538;13.820;2023-05-29T08:19:09;27.70;1.00
44843;DHT22;31884;52.538;13.820;2023-05-29T08:21:35;27.30;1.00
44843;DHT22;31884;52.538;13.820;2023-05-29T08:24:04;28.00;1.00
44843;DHT22;31884;52.538;13.820;2023-05-29T08:26:32;28.00;1.00
44843;DHT22;31884;52.538;13.820;2023-05-29T08:28:58;28.50;1.00
44843;DHT22;31884;52.538;13.820;2023-05-29T08:31:23;28.10;1.00
44843;DHT22;31884;52.538;13.820;2023-05-29T08:33:51;28.00;1.00
44843;DHT22;31884;52.538;13.820;2023-05-29T08:36:17;28.60;1.00
44843;DHT22;31884;52.538;13.820;2023-05-29T08:38:43;28.40;1.00
44843;DHT22;31884;52.538;13.820;2023-05-29T08:41:13;28.60;1.00
44843;DHT22;31884;52.538;13.820;2023-05-29T08:43:43;28.20;1.00
44843;DHT22;31884;52.538;13.820;2023-05-29T08:46:09;27.60;1.00
44843;DHT22;31884;52.538;13.820;2023-05-29T08:48:37;27.70;1.00
44843;DHT22;31884;52.538;13.820;2023-05-29T08:51:06;26.90;1.00
44843;DHT22;31884;52.538;13.820;2023-05-29T08:53:34;26.90;1.00
44843;DHT22;31884;52.538;13.820;2023-05-29T08:56:00;27.20;1.00
44843;DHT22;31884;52.538;13.820;2023-05-29T08:58:27;26.40;1.00
44843;DHT22;31884;52.538;13.820;2023-05-29T09:00:53;25.30;1.60
44843;DHT22;31884;52.538;13.820;2023-05-29T09:03:20;25.00;2.40
44843;DHT22;31884;52.538;13.820;2023-05-29T09:05:48;25.00;2.50
44843;DHT22;31884;52.538;13.820;2023-05-29T09:08:14;25.70;2.60
44843;DHT22;31884;52.538;13.820;2023-05-29T09:10:44;26.00;2.20
44843;DHT22;31884;52.538;13.820;2023-05-29T09:13:12;26.60;2.10
44843;DHT22;31884;52.538;13.820;2023-05-29T09:15:40;27.30;1.60
44843;DHT22;31884;52.538;13.820;2023-05-29T09:18:08;27.00;1.30
44843;DHT22;31884;52.538;13.820;2023-05-29T09:20:36;26.90;1.50
44843;DHT22;31884;52.538;13.820;2023-05-29T09:23:05;26.10;1.00
44843;DHT22;31884;52.538;13.820;2023-05-29T09:25:33;25.70;2.00
44843;DHT22;31884;52.538;13.820;2023-05-29T09:28:06;25.50;2.60
44843;DHT22;31884;52.538;13.820;2023-05-29T09:30:43;25.80;2.70
44843;DHT22;31884;52.538;13.820;2023-05-29T09:33:10;25.50;2.40
44843;DHT22;31884;52.538;13.820;2023-05-29T09:35:46;26.10;2.00
44843;DHT22;31884;52.538;13.820;2023-05-29T09:38:12;26.30;1.00
44843;DHT22;31884;52.538;13.820;2023-05-29T09:40:40;26.40;1.00
44843;DHT22;31884;52.538;13.820;2023-05-29T09:43:09;26.70;1.00
44843;DHT22;31884;52.538;13.820;2023-05-29T09:45:38;26.40;1.00
44843;DHT22;31884;52.538;13.820;2023-05-29T09:48:12;26.00;1.40
44843;DHT22;31884;52.538;13.820;2023-05-29T09:50:39;26.40;1.00
44843;DHT22;31884;52.538;13.820;2023-05-29T09:53:22;26.80;1.00
44843;DHT22;31884;52.538;13.820;2023-05-29T09:55:52;27.00;1.00
44843;DHT22;31884;52.538;13.820;2023-05-29T09:58:18;27.20;1.00
44843;DHT22;31884;52.538;13.820;2023-05-29T10:00:46;27.20;1.00
44843;DHT22;31884;52.538;13.820;2023-05-29T10:03:12;26.80;1.00
44843;DHT22;31884;52.538;13.820;2023-05-29T10:05:42;26.50;1.00
44843;DHT22;31884;52.538;13.820;2023-05-29T10:08:11;26.40;1.00
44843;DHT22;31884;52.538;13.820;2023-05-29T10:10:37;26.60;1.00
44843;DHT22;31884;52.538;13.820;2023-05-29T10:13:06;26.70;1.00
44843;DHT22;31884;52.538;13.820;2023-05-29T10:15:36;26.70;1.00
44843;DHT22;31884;52.538;13.820;2023-05-29T10:18:05;26.60;1.00
44843;DHT22;31884;52.538;13.820;2023-05-29T10:20:35;26.70;1.00
44843;DHT22;31884;52.538;13.820;2023-05-29T10:23:02;26.80;1.00
44843;DHT22;31884;52.538;13.820;2023-05-29T10:25:30;26.60;1.00
44843;DHT22;31884;52.538;13.820;2023-05-29T10:27:58;26.30;1.00
44843;DHT22;31884;52.538;13.820;2023-05-29T10:30:41;25.90;1.00
44843;DHT22;31884;52.538;13.820;2023-05-29T10:38:41;24.90;1.20
44843;DHT22;31884;52.538;13.820;2023-05-29T10:44:00;24.90;2.30
44843;DHT22;31884;52.538;13.820;2023-05-29T10:49:22;24.90;2.20
44843;DHT22;31884;52.538;13.820;2023-05-29T10:51:48;25.10;1.60
44843;DHT22;31884;52.538;13.820;2023-05-29T10:54:15;25.20;1.10
44843;DHT22;31884;52.538;13.820;2023-05-29T10:56:52;25.30;1.00
44843;DHT22;31884;52.538;13.820;2023-05-29T10:59:18;25.20;1.00
44843;DHT22;31884;52.538;13.820;2023-05-29T11:01:44;24.80;1.00
44843;DHT22;31884;52.538;13.820;2023-05-29T11:06:49;24.60;1.40
44843;DHT22;31884;52.538;13.820;2023-05-29T11:09:32;24.10;2.70
44843;DHT22;31884;52.538;13.820;2023-05-29T11:14:47;23.70;3.00
44843;DHT22;31884;52.538;13.820;2023-05-29T11:25:14;23.90;2.40
44843;DHT22;31884;52.538;13.820;2023-05-29T11:27:44;23.90;2.00
44843;DHT22;31884;52.538;13.820;2023-05-29T11:30:10;24.10;1.40
44843;DHT22;31884;52.538;13.820;2023-05-29T11:32:36;24.00;1.20
44843;DHT22;31884;52.538;13.820;2023-05-29T11:35:09;24.00;1.20
44843;DHT22;31884;52.538;13.820;2023-05-29T11:37:36;23.80;1.80
44843;DHT22;31884;52.538;13.820;2023-05-29T11:40:04;24.00;2.10
44843;DHT22;31884;52.538;13.820;2023-05-29T11:42:31;24.40;1.50
44843;DHT22;31884;52.538;13.820;2023-05-29T11:45:18;24.60;1.20
44843;DHT22;31884;52.538;13.820;2023-05-29T11:47:55;24.30;2.20
44843;DHT22;31884;52.538;13.820;2023-05-29T11:50:22;23.90;2.90
44843;DHT22;31884;52.538;13.820;2023-05-29T11:52:49;23.50;3.20
44843;DHT22;31884;52.538;13.820;2023-05-29T11:55:20;23.30;3.70
44843;DHT22;31884;52.538;13.820;2023-05-29T11:57:49;23.20;3.60
44843;DHT22;31884;52.538;13.820;2023-05-29T12:00:16;23.20;3.30
44843;DHT22;31884;52.538;13.820;2023-05-29T12:02:42;23.20;3.00
44843;DHT22;31884;52.538;13.820;2023-05-29T12:05:09;23.20;3.70
44843;DHT22;31884;52.538;13.820;2023-05-29T12:07:38;23.30;3.20
44843;DHT22;31884;52.538;13.820;2023-05-29T12:10:11;23.50;3.20
44843;DHT22;31884;52.538;13.820;2023-05-29T12:12:36;23.70;3.60
44843;DHT22;31884;52.538;13.820;2023-05-29T12:15:03;23.70;2.70
44843;DHT22;31884;52.538;13.820;2023-05-29T12:17:31;23.90;2.60
44843;DHT22;31884;52.538;13.820;2023-05-29T12:19:57;24.20;2.40
44843;DHT22;31884;52.538;13.820;2023-05-29T12:22:36;24.50;2.00
44843;DHT22;31884;52.538;13.820;2023-05-29T12:25:06;24.80;1.60
44843;DHT22;31884;52.538;13.820;2023-05-29T12:27:33;24.90;1.00
44843;DHT22;31884;52.538;13.820;2023-05-29T12:30:08;24.30;1.70
44843;DHT22;31884;52.538;13.820;2023-05-29T12:32:38;23.90;1.70
44843;DHT22;31884;52.538;13.820;2023-05-29T12:37:58;24.20;1.80
44843;DHT22;31884;52.538;13.820;2023-05-29T12:40:27;24.50;2.20
44843;DHT22;31884;52.538;13.820;2023-05-29T12:43:13;24.80;1.50
44843;DHT22;31884;52.538;13.820;2023-05-29T12:45:39;25.00;1.30
44843;DHT22;31884;52.538;13.820;2023-05-29T12:48:06;25.10;1.20
44843;DHT22;31884;52.538;13.820;2023-05-29T12:50:34;25.30;1.20
44843;DHT22;31884;52.538;13.820;2023-05-29T12:55:50;25.40;1.00
44843;DHT22;31884;52.538;13.820;2023-05-29T12:58:16;25.00;1.00
44843;DHT22;31884;52.538;13.820;2023-05-29T13:00:43;24.90;1.00
44843;DHT22;31884;52.538;13.820;2023-05-29T13:03:09;24.90;1.00
44843;DHT22;31884;52.538;13.820;2023-05-29T13:05:36;24.90;1.00
44843;DHT22;31884;52.538;13.820;2023-05-29T13:08:02;24.90;1.00
44843;DHT22;31884;52.538;13.820;2023-05-29T13:10:30;24.40;1.40
44843;DHT22;31884;52.538;13.820;2023-05-29T13:12:55;24.00;2.10
44843;DHT22;31884;52.538;13.820;2023-05-29T13:15:24;23.90;2.50
44843;DHT22;31884;52.538;13.820;2023-05-29T13:17:52;23.90;2.40
44843;DHT22;31884;52.538;13.820;2023-05-29T13:20:19;23.80;2.10
44843;DHT22;31884;52.538;13.820;2023-05-29T13:22:46;23.60;3.00
44843;DHT22;31884;52.538;13.820;2023-05-29T13:25:15;23.50;2.40
44843;DHT22;31884;52.538;13.820;2023-05-29T13:27:46;23.20;2.60
44843;DHT22;31884;52.538;13.820;2023-05-29T13:30:12;22.90;2.70
44843;DHT22;31884;52.538;13.820;2023-05-29T13:32:39;22.80;2.90
44843;DHT22;31884;52.538;13.820;2023-05-29T13:35:06;22.60;3.00
44843;DHT22;31884;52.538;13.820;2023-05-29T13:37:32;22.60;3.00
44843;DHT22;31884;52.538;13.820;2023-05-29T13:39:58;22.60;3.50
44843;DHT22;31884;52.538;13.820;2023-05-29T13:42:25;22.80;3.20
44843;DHT22;31884;52.538;13.820;2023-05-29T13:44:51;23.00;2.80
44843;DHT22;31884;52.538;13.820;2023-05-29T13:47:16;23.00;2.70
44843;DHT22;31884;52.538;13.820;2023-05-29T13:49:42;23.20;3.00
44843;DHT22;31884;52.538;13.820;2023-05-29T13:52:08;23.30;2.80
44843;DHT22;31884;52.538;13.820;2023-05-29T13:54:33;23.40;2.80
44843;DHT22;31884;52.538;13.820;2023-05-29T13:57:01;23.60;2.80
44843;DHT22;31884;52.538;13.820;2023-05-29T13:59:29;23.60;2.80
44843;DHT22;31884;52.538;13.820;2023-05-29T14:01:54;23.40;2.60
44843;DHT22;31884;52.538;13.820;2023-05-29T14:04:20;23.40;2.90
44843;DHT22;31884;52.538;13.820;2023-05-29T14:06:45;23.30;2.80
44843;DHT22;31884;52.538;13.820;2023-05-29T14:09:11;23.30;2.80
44843;DHT22;31884;52.538;13.820;2023-05-29T14:11:37;23.40;2.80
44843;DHT22;31884;52.538;13.820;2023-05-29T14:14:06;23.30;2.70
44843;DHT22;31884;52.538;13.820;2023-05-29T14:16:33;23.20;2.90
44843;DHT22;31884;52.538;13.820;2023-05-29T14:18:59;23.10;2.90
44843;DHT22;31884;52.538;13.820;2023-05-29T14:21:25;23.10;3.00
44843;DHT22;31884;52.538;13.820;2023-05-29T14:23:51;23.10;4.00
44843;DHT22;31884;52.538;13.820;2023-05-29T14:26:18;23.00;3.30
44843;DHT22;31884;52.538;13.820;2023-05-29T14:28:44;22.90;3.40
44843;DHT22;31884;52.538;13.820;2023-05-29T14:31:10;22.90;3.50
44843;DHT22;31884;52.538;13.820;2023-05-29T14:33:36;22.90;3.70
44843;DHT22;31884;52.538;13.820;2023-05-29T14:36:05;22.90;3.80
44843;DHT22;31884;52.538;13.820;2023-05-29T14:38:31;22.70;4.00
44843;DHT22;31884;52.538;13.820;2023-05-29T14:40:56;22.60;4.10
44843;DHT22;31884;52.538;13.820;2023-05-29T14:43:22;22.50;4.00
44843;DHT22;31884;52.538;13.820;2023-05-29T14:45:47;22.50;4.00
44843;DHT22;31884;52.538;13.820;2023-05-29T14:48:15;22.50;4.30
44843;DHT22;31884;52.538;13.820;2023-05-29T14:50:41;22.30;4.30
44843;DHT22;31884;52.538;13.820;2023-05-29T14:53:08;22.40;4.30
44843;DHT22;31884;52.538;13.820;2023-05-29T14:55:33;22.40;4.20
44843;DHT22;31884;52.538;13.820;2023-05-29T14:58:06;22.40;4.20
44843;DHT22;31884;52.538;13.820;2023-05-29T15:00:31;22.50;4.20
44843;DHT22;31884;52.538;13.820;2023-05-29T15:02:57;22.60;4.20
44843;DHT22;31884;52.538;13.820;2023-05-29T15:05:25;22.60;4.00
44843;DHT22;31884;52.538;13.820;2023-05-29T15:07:54;22.60;4.40
44843;DHT22;31884;52.538;13.820;2023-05-29T15:10:23;22.50;4.40
44843;DHT22;31884;52.538;13.820;2023-05-29T15:12:50;22.40;5.10
44843;DHT22;31884;52.538;13.820;2023-05-29T15:15:25;22.20;4.80
44843;DHT22;31884;52.538;13.820;2023-05-29T15:17:52;22.10;5.00
44843;DHT22;31884;52.538;13.820;2023-05-29T15:20:21;21.90;5.70
44843;DHT22;31884;52.538;13.820;2023-05-29T15:22:47;21.80;5.70
44843;DHT22;31884;52.538;13.820;2023-05-29T15:25:14;21.80;5.50
44843;DHT22;31884;52.538;13.820;2023-05-29T15:27:40;21.70;5.40
44843;DHT22;31884;52.538;13.820;2023-05-29T15:30:13;21.70;5.40
44843;DHT22;31884;52.538;13.820;2023-05-29T15:32:40;21.80;5.70
44843;DHT22;31884;52.538;13.820;2023-05-29T15:35:08;21.70;5.60
44843;DHT22;31884;52.538;13.820;2023-05-29T15:37:34;21.70;5.20
44843;DHT22;31884;52.538;13.820;2023-05-29T15:40:00;21.80;4.90
44843;DHT22;31884;52.538;13.820;2023-05-29T15:42:26;21.70;5.00
44843;DHT22;31884;52.538;13.820;2023-05-29T15:44:53;21.70;5.50
44843;DHT22;31884;52.538;13.820;2023-05-29T15:47:18;21.60;4.80
44843;DHT22;31884;52.538;13.820;2023-05-29T15:49:44;21.50;5.00
44843;DHT22;31884;52.538;13.820;2023-05-29T15:52:10;21.60;5.00
44843;DHT22;31884;52.538;13.820;2023-05-29T15:54:35;21.70;4.90
44843;DHT22;31884;52.538;13.820;2023-05-29T15:57:00;21.70;4.70
44843;DHT22;31884;52.538;13.820;2023-05-29T15:59:28;21.70;4.50
44843;DHT22;31884;52.538;13.820;2023-05-29T16:01:54;21.60;4.20
44843;DHT22;31884;52.538;13.820;2023-05-29T16:04:20;21.50;4.40